Time;durP1;ratioP1;P1;durP2;ratioP2;P2;SDS_P1;SDS_P2;PMS_P1;PMS_P2;Temp;Humidity;BMP_temperature;BMP_pressure;BME280_temperature;BME280_humidity;BME280_pressure;Samples;Min_cycle;Max_cycle;Signal;HPM_P1;HPM_P2
2022/09/19 04:30:27;;;;;;;;;7.00;6.50;;;;;;;;6093822;22;45362;31
2022/09/19 04:32:52;;;;;;;;;5.67;5.67;;;;;;;;4959014;28;46233;-58
2022/09/19 04:35:18;;;;;;;;;7.00;7.00;;;;;;;;4960843;28;45387;-58
2022/09/19 04:37:43;;;;;;;;;7.67;7.67;;;;;;;;4961465;28;45327;-58
2022/09/19 04:40:09;;;;;;;;;7.67;6.67;;;;;;;;4964875;28;45498;-58
2022/09/19 04:42:36;;;;;;;;;8.00;7.00;;;;;;;;4960789;28;46173;-58
2022/09/19 04:45:01;;;;;;;;;5.00;5.00;;;;;;;;4960529;28;45293;-57
2022/09/19 04:47:28;;;;;;;;;5.00;5.00;;;;;;;;4959951;28;45421;-59
2022/09/19 04:49:54;;;;;;;;;12.00;8.67;;;;;;;;4961411;28;45558;-58
2022/09/19 04:52:19;;;;;;;;;8.00;7.00;;;;;;;;4959611;28;46196;-57
2022/09/19 04:54:47;;;;;;;;;6.67;5.33;;;;;;;;4961308;28;45340;-57
2022/09/19 04:57:12;;;;;;;;;6.33;6.00;;;;;;;;4959797;28;45481;-58
2022/09/19 04:59:37;;;;;;;;;6.00;6.00;;;;;;;;4959674;28;45421;-58
2022/09/19 05:02:05;;;;;;;;;13.00;8.00;;;;;;;;4967205;28;46031;-58
2022/09/19 05:04:30;;;;;;;;;7.67;7.00;;;;;;;;4965923;28;45491;-58
2022/09/19 05:06:56;;;;;;;;;7.00;7.00;;;;;;;;4961375;28;45472;-59
2022/09/19 05:09:22;;;;;;;;;10.33;6.33;;;;;;;;4960150;28;45535;-59
2022/09/19 05:11:47;;;;;;;;;8.67;7.67;;;;;;;;4964148;28;46341;-58
2022/09/19 05:14:13;;;;;;;;;7.00;7.00;;;;;;;;4965734;28;45338;-58
2022/09/19 05:16:39;;;;;;;;;8.67;7.00;;;;;;;;4966072;28;45409;-58
2022/09/19 05:19:04;;;;;;;;;8.67;7.00;;;;;;;;4963046;28;45298;-58
2022/09/19 05:21:29;;;;;;;;;7.00;6.33;;;;;;;;4963064;28;45984;-58
2022/09/19 05:23:55;;;;;;;;;7.33;7.00;;;;;;;;4962658;28;45273;-57
2022/09/19 05:26:20;;;;;;;;;6.00;6.00;;;;;;;;4960924;28;45150;-59
2022/09/19 05:28:45;;;;;;;;;6.67;6.00;;;;;;;;4957091;28;45535;-58
2022/09/19 05:31:12;;;;;;;;;9.67;8.00;;;;;;;;4959137;28;47117;-59
2022/09/19 05:33:37;;;;;;;;;7.67;7.67;;;;;;;;4955132;28;45425;-59
2022/09/19 05:36:03;;;;;;;;;8.33;6.00;;;;;;;;4963694;28;45429;-59
2022/09/19 05:38:30;;;;;;;;;6.33;6.33;;;;;;;;4958825;28;45605;-59
2022/09/19 05:40:57;;;;;;;;;7.33;6.33;;;;;;;;4952716;28;47031;-57
2022/09/19 05:43:23;;;;;;;;;5.33;5.33;;;;;;;;4958859;28;45442;-58
2022/09/19 05:45:52;;;;;;;;;7.67;7.67;;;;;;;;4959081;28;45326;-58
2022/09/19 05:48:18;;;;;;;;;8.33;6.00;;;;;;;;4957544;28;45689;-58
2022/09/19 05:50:43;;;;;;;;;6.00;6.00;;;;;;;;4963596;28;46348;-58
2022/09/19 05:54:10;;;;;;;;;6.67;6.67;;;;;;;;4959346;28;45435;-59
2022/09/19 05:56:04;;;;;;;;;8.00;8.00;;;;;;;;4954944;28;45490;-58
2022/09/19 05:58:30;;;;;;;;;6.67;6.00;;;;;;;;4959780;28;45384;-58
2022/09/19 06:00:56;;;;;;;;;8.67;8.00;;;;;;;;4961750;28;45904;-59
2022/09/19 06:03:22;;;;;;;;;8.00;8.00;;;;;;;;4958495;28;45336;-58
2022/09/19 06:05:48;;;;;;;;;7.33;6.00;;;;;;;;4961223;28;45450;-58
2022/09/19 06:08:14;;;;;;;;;7.00;7.00;;;;;;;;4959895;28;45487;-57
2022/09/19 06:10:40;;;;;;;;;5.33;5.00;;;;;;;;4957424;28;45491;-58
2022/09/19 06:13:11;;;;;;;;;6.00;6.00;;;;;;;;4959499;28;45353;-59
2022/09/19 06:15:37;;;;;;;;;8.33;7.00;;;;;;;;4958180;28;45226;-58
2022/09/19 06:18:02;;;;;;;;;7.33;7.33;;;;;;;;4960071;28;45303;-56
2022/09/19 06:20:27;;;;;;;;;5.33;5.00;;;;;;;;4955342;28;46223;-58
2022/09/19 06:23:02;;;;;;;;;6.00;6.00;;;;;;;;4957916;28;45305;-58
2022/09/19 06:25:28;;;;;;;;;7.00;5.67;;;;;;;;4958460;28;45222;-58
2022/09/19 06:28:01;;;;;;;;;8.00;6.00;;;;;;;;4959299;28;45506;-58
2022/09/19 06:30:27;;;;;;;;;8.67;7.00;;;;;;;;4956906;28;46209;-59
2022/09/19 06:32:52;;;;;;;;;11.33;10.00;;;;;;;;4955477;28;45448;-58
2022/09/19 06:35:18;;;;;;;;;8.33;6.00;;;;;;;;4957247;28;45558;-58
2022/09/19 06:37:44;;;;;;;;;8.00;7.33;;;;;;;;4968193;28;45455;-59
2022/09/19 06:40:10;;;;;;;;;9.00;9.00;;;;;;;;4962658;28;46025;-57
2022/09/19 06:42:35;;;;;;;;;6.00;6.00;;;;;;;;4958973;28;45448;-57
2022/09/19 06:45:01;;;;;;;;;7.33;5.00;;;;;;;;4959023;28;45749;-50
2022/09/19 06:47:26;;;;;;;;;8.00;8.00;;;;;;;;4958987;28;45554;-54
2022/09/19 06:49:52;;;;;;;;;8.33;7.00;;;;;;;;4952355;28;45592;-56
2022/09/19 06:52:17;;;;;;;;;13.67;8.33;;;;;;;;4961764;28;45717;-55
2022/09/19 06:54:43;;;;;;;;;11.67;7.67;;;;;;;;4958466;28;45547;-55
2022/09/19 06:57:08;;;;;;;;;9.00;7.67;;;;;;;;4958577;28;45801;-53
2022/09/19 06:59:33;;;;;;;;;8.67;8.67;;;;;;;;4957315;28;45499;-54
2022/09/19 07:01:59;;;;;;;;;6.00;6.00;;;;;;;;4958342;28;45455;-52
2022/09/19 07:04:24;;;;;;;;;7.00;6.67;;;;;;;;4957285;28;45434;-52
2022/09/19 07:06:49;;;;;;;;;5.00;5.00;;;;;;;;4959366;28;45442;-51
2022/09/19 07:09:14;;;;;;;;;7.00;6.67;;;;;;;;4957453;28;46031;-53
2022/09/19 07:11:39;;;;;;;;;7.00;5.67;;;;;;;;4954841;28;45514;-51
2022/09/19 07:14:05;;;;;;;;;9.00;7.00;;;;;;;;4956874;28;45456;-55
2022/09/19 07:16:30;;;;;;;;;6.67;6.67;;;;;;;;4957426;28;45419;-50
2022/09/19 07:18:55;;;;;;;;;6.33;5.33;;;;;;;;4962161;28;45408;-54
2022/09/19 07:21:21;;;;;;;;;7.00;7.00;;;;;;;;4954403;28;45238;-54
2022/09/19 07:23:47;;;;;;;;;9.33;8.33;;;;;;;;4953573;28;45629;-54
2022/09/19 07:26:13;;;;;;;;;8.00;8.00;;;;;;;;4950994;28;46161;-54
2022/09/19 07:28:38;;;;;;;;;9.67;9.00;;;;;;;;4953246;28;45984;-48
2022/09/19 07:31:03;;;;;;;;;5.67;5.67;;;;;;;;4959483;28;45472;-51
2022/09/19 07:33:30;;;;;;;;;7.00;5.33;;;;;;;;4955042;28;45244;-53
2022/09/19 07:35:55;;;;;;;;;6.67;6.67;;;;;;;;4956245;28;45419;-54
2022/09/19 07:38:22;;;;;;;;;6.67;6.67;;;;;;;;4958965;28;46772;-53
2022/09/19 07:40:48;;;;;;;;;9.33;8.00;;;;;;;;4960028;28;45313;-50
2022/09/19 07:43:14;;;;;;;;;10.00;9.00;;;;;;;;4960342;28;45785;-52
2022/09/19 07:45:42;;;;;;;;;7.67;7.67;;;;;;;;4957832;28;45440;-52
2022/09/19 07:48:07;;;;;;;;;10.00;5.67;;;;;;;;4958947;28;46220;-50
2022/09/19 07:50:32;;;;;;;;;6.00;6.00;;;;;;;;4960228;28;45399;-54
2022/09/19 07:52:59;;;;;;;;;12.00;7.67;;;;;;;;4960349;28;45333;-52
2022/09/19 07:55:25;;;;;;;;;6.33;6.33;;;;;;;;4959784;28;45166;-51
2022/09/19 07:57:51;;;;;;;;;7.67;7.00;;;;;;;;4960375;28;45971;-54
2022/09/19 08:00:16;;;;;;;;;10.00;8.00;;;;;;;;4961943;28;45972;-55
2022/09/19 08:02:42;;;;;;;;;8.67;8.67;;;;;;;;4956931;28;45475;-54
2022/09/19 08:05:07;;;;;;;;;7.67;7.67;;;;;;;;4958995;28;45715;-54
2022/09/19 08:07:32;;;;;;;;;7.00;5.00;;;;;;;;4960231;28;45324;-55
2022/09/19 08:09:57;;;;;;;;;6.00;4.67;;;;;;;;4961227;28;45587;-53
2022/09/19 08:12:23;;;;;;;;;7.33;5.00;;;;;;;;4958730;28;45499;-55
2022/09/19 08:14:48;;;;;;;;;4.33;4.00;;;;;;;;4960033;28;45415;-54
2022/09/19 08:17:13;;;;;;;;;9.00;6.00;;;;;;;;4959799;28;46307;-50
2022/09/19 08:19:38;;;;;;;;;6.00;5.00;;;;;;;;4953949;28;45420;-55
2022/09/19 08:22:04;;;;;;;;;8.67;8.33;;;;;;;;4958948;28;45813;-54
2022/09/19 08:24:29;;;;;;;;;6.00;5.00;;;;;;;;4959683;28;45424;-53
2022/09/19 08:26:57;;;;;;;;;4.00;3.00;;;;;;;;4959969;28;47203;-54
2022/09/19 08:29:23;;;;;;;;;4.00;3.00;;;;;;;;4959052;28;45814;-55
2022/09/19 08:31:50;;;;;;;;;4.67;3.00;;;;;;;;4959972;28;45570;-55
2022/09/19 08:34:16;;;;;;;;;3.00;3.00;;;;;;;;4948692;28;45478;-55
2022/09/19 08:36:41;;;;;;;;;2.33;2.00;;;;;;;;4959012;28;45910;-56
2022/09/19 08:39:06;;;;;;;;;1.67;1.67;;;;;;;;4957542;28;45486;-54
2022/09/19 08:41:37;;;;;;;;;2.00;2.00;;;;;;;;4958321;28;46871;-52
2022/09/19 08:44:03;;;;;;;;;1.67;1.00;;;;;;;;4957719;28;45533;-54
2022/09/19 08:46:35;;;;;;;;;0.67;0.00;;;;;;;;4960410;28;45291;-54
2022/09/19 08:49:03;;;;;;;;;0.67;0.00;;;;;;;;4957885;28;45422;-53
2022/09/19 08:51:29;;;;;;;;;0.00;0.00;;;;;;;;4960604;28;45337;-54
2022/09/19 08:54:01;;;;;;;;;1.00;0.00;;;;;;;;4961518;28;45220;-50
2022/09/19 08:56:28;;;;;;;;;0.00;0.00;;;;;;;;4960234;28;46161;-56
2022/09/19 08:58:57;;;;;;;;;0.00;0.00;;;;;;;;4960617;28;45386;-54
2022/09/19 09:01:22;;;;;;;;;0.00;0.00;;;;;;;;4960194;28;45507;-53
2022/09/19 09:04:07;;;;;;;;;0.00;0.00;;;;;;;;4960971;28;45265;-53
2022/09/19 09:06:51;;;;;;;;;1.00;0.00;;;;;;;;4953315;28;46114;-53
2022/09/19 09:09:30;;;;;;;;;0.33;0.00;;;;;;;;4956855;28;45436;-54
2022/09/19 09:12:03;;;;;;;;;0.00;0.00;;;;;;;;4960774;28;45715;-53
2022/09/19 09:14:46;;;;;;;;;0.00;0.00;;;;;;;;4953234;28;45707;-55
2022/09/19 09:17:27;;;;;;;;;1.00;0.00;;;;;;;;4957726;28;45986;-51
2022/09/19 09:20:16;;;;;;;;;2.00;0.00;;;;;;;;4952987;28;45355;-52
2022/09/19 09:22:49;;;;;;;;;0.00;0.00;;;;;;;;4958393;28;45793;-52
2022/09/19 09:25:28;;;;;;;;;0.00;0.00;;;;;;;;4957578;28;45572;-54
2022/09/19 09:28:00;;;;;;;;;0.00;0.00;;;;;;;;4957834;28;45921;-54
2022/09/19 09:30:25;;;;;;;;;0.00;0.00;;;;;;;;4958154;28;45455;-53
2022/09/19 09:32:56;;;;;;;;;0.00;0.00;;;;;;;;4954684;28;45273;-54
2022/09/19 09:35:26;;;;;;;;;1.00;0.00;;;;;;;;4958205;28;45382;-51
2022/09/19 09:37:57;;;;;;;;;0.00;0.00;;;;;;;;4957826;28;46188;-53
2022/09/19 09:43:10;;;;;;;;;0.00;0.00;;;;;;;;4957678;28;45396;-54
2022/09/19 09:45:46;;;;;;;;;1.00;0.00;;;;;;;;4959403;28;45649;-55
2022/09/19 09:48:24;;;;;;;;;0.00;0.00;;;;;;;;4960554;28;46373;-53
2022/09/19 09:51:08;;;;;;;;;1.25;0.50;;;;;;;;4955631;28;45507;-55
2022/09/19 09:53:42;;;;;;;;;0.00;0.00;;;;;;;;4956256;28;45488;-54
2022/09/19 09:56:19;;;;;;;;;0.50;0.00;;;;;;;;4958612;28;46190;-55
2022/09/19 09:58:53;;;;;;;;;0.00;0.00;;;;;;;;4960940;28;45801;-54
2022/09/19 10:04:23;;;;;;;;;0.00;0.00;;;;;;;;4958291;28;45513;-52
2022/09/19 10:06:52;;;;;;;;;0.00;0.00;;;;;;;;4961691;28;45618;-56
2022/09/19 10:09:23;;;;;;;;;0.00;0.00;;;;;;;;4957815;28;46036;-55
2022/09/19 10:11:52;;;;;;;;;0.20;0.00;;;;;;;;4958007;28;45341;-54
2022/09/19 10:14:19;;;;;;;;;0.00;0.00;;;;;;;;4955698;28;45583;-55
2022/09/19 10:16:47;;;;;;;;;0.00;0.00;;;;;;;;4955729;28;45507;-57
2022/09/19 10:19:12;;;;;;;;;0.00;0.00;;;;;;;;4957978;28;46905;-56
2022/09/19 10:21:38;;;;;;;;;0.00;0.00;;;;;;;;4955371;28;45346;-57
2022/09/19 10:24:23;;;;;;;;;0.00;0.00;;;;;;;;4958497;28;45454;-57
2022/09/19 10:26:48;;;;;;;;;0.00;0.00;;;;;;;;4959345;28;45670;-56
2022/09/19 10:29:23;;;;;;;;;0.00;0.00;;;;;;;;4957547;28;45500;-57
2022/09/19 10:31:48;;;;;;;;;0.00;0.00;;;;;;;;4962238;28;45460;-57
2022/09/19 10:34:32;;;;;;;;;0.00;0.00;;;;;;;;4954200;28;45648;-56
2022/09/19 10:37:02;;;;;;;;;0.00;0.00;;;;;;;;4957939;28;45371;-55
2022/09/19 10:39:28;;;;;;;;;0.00;0.00;;;;;;;;4959883;28;47192;-54
2022/09/19 10:41:53;;;;;;;;;0.00;0.00;;;;;;;;4959235;28;45464;-57
2022/09/19 10:44:22;;;;;;;;;0.00;0.00;;;;;;;;4957867;28;45344;-57
2022/09/19 10:47:02;;;;;;;;;0.00;0.00;;;;;;;;4958853;28;45403;-56
2022/09/19 10:49:30;;;;;;;;;0.00;0.00;;;;;;;;4951473;28;45608;-56
2022/09/19 10:51:59;;;;;;;;;0.00;0.00;;;;;;;;4956098;28;45310;-55
2022/09/19 10:54:35;;;;;;;;;0.00;0.00;;;;;;;;4956665;28;45270;-54
2022/09/19 10:57:01;;;;;;;;;0.00;0.00;;;;;;;;4954456;28;45451;-56
2022/09/19 10:59:33;;;;;;;;;0.00;0.00;;;;;;;;4958064;28;46255;-56
2022/09/19 11:02:17;;;;;;;;;0.00;0.00;;;;;;;;4959689;28;45473;-57
2022/09/19 11:04:53;;;;;;;;;0.00;0.00;;;;;;;;4961359;28;45569;-57
2022/09/19 11:07:23;;;;;;;;;0.00;0.00;;;;;;;;4954610;28;45484;-57
2022/09/19 11:09:48;;;;;;;;;0.00;0.00;;;;;;;;4961062;28;46262;-55
2022/09/19 11:12:16;;;;;;;;;0.00;0.00;;;;;;;;4958127;28;45661;-56
2022/09/19 11:14:50;;;;;;;;;0.00;0.00;;;;;;;;4960961;28;45364;-54
2022/09/19 11:17:22;;;;;;;;;0.00;0.00;;;;;;;;4961525;28;45608;-56
2022/09/19 11:19:49;;;;;;;;;0.00;0.00;;;;;;;;4953635;28;45523;-56
2022/09/19 11:22:17;;;;;;;;;0.00;0.00;;;;;;;;4960899;28;45533;-56
2022/09/19 11:24:57;;;;;;;;;1.20;0.00;;;;;;;;4961632;28;45641;-56
2022/09/19 11:27:22;;;;;;;;;0.50;0.00;;;;;;;;4960180;28;45643;-56
2022/09/19 11:29:55;;;;;;;;;0.00;0.00;;;;;;;;4952085;28;46017;-56
2022/09/19 11:32:20;;;;;;;;;0.00;0.00;;;;;;;;4953781;28;45400;-57
2022/09/19 11:35:07;;;;;;;;;0.00;0.00;;;;;;;;4961011;28;45541;-56
2022/09/19 11:37:41;;;;;;;;;0.00;0.00;;;;;;;;4956902;28;45538;-56
2022/09/19 11:40:25;;;;;;;;;0.75;0.75;;;;;;;;4952736;28;45467;-57
2022/09/19 11:42:54;;;;;;;;;3.80;0.00;;;;;;;;4960030;28;45420;-56
2022/09/19 11:45:20;;;;;;;;;1.00;0.00;;;;;;;;4959003;28;45345;-56
2022/09/19 11:47:50;;;;;;;;;0.00;0.00;;;;;;;;4960076;28;45321;-55
2022/09/19 11:50:22;;;;;;;;;0.00;0.00;;;;;;;;4958998;28;46253;-57
2022/09/19 11:52:56;;;;;;;;;0.00;0.00;;;;;;;;4962376;28;45538;-57
2022/09/19 11:55:34;;;;;;;;;0.75;0.00;;;;;;;;4957869;28;45486;-56
2022/09/19 11:58:12;;;;;;;;;0.00;0.00;;;;;;;;4960149;28;45479;-56
2022/09/19 12:00:50;;;;;;;;;0.00;0.00;;;;;;;;4956043;28;45420;-57
2022/09/19 12:03:20;;;;;;;;;0.00;0.00;;;;;;;;4955193;28;46580;-55
2022/09/19 12:06:04;;;;;;;;;0.75;0.00;;;;;;;;4960184;28;45396;-55
2022/09/19 12:08:32;;;;;;;;;0.00;0.00;;;;;;;;4960783;28;45625;-55
2022/09/19 12:11:09;;;;;;;;;0.00;0.00;;;;;;;;4960774;28;46154;-54
2022/09/19 12:13:46;;;;;;;;;0.00;0.00;;;;;;;;4962680;28;45392;-57
2022/09/19 12:16:18;;;;;;;;;0.00;0.00;;;;;;;;4958429;28;45588;-56
2022/09/19 12:18:49;;;;;;;;;0.00;0.00;;;;;;;;4956967;28;45677;-55
2022/09/19 12:21:15;;;;;;;;;0.00;0.00;;;;;;;;4959272;28;46170;-55
2022/09/19 12:26:28;;;;;;;;;0.25;0.00;;;;;;;;4951653;28;45491;-56
2022/09/19 12:29:01;;;;;;;;;3.50;3.50;;;;;;;;4960601;28;45655;-57
2022/09/19 12:31:32;;;;;;;;;1.25;1.25;;;;;;;;4957361;28;46180;-55
2022/09/19 12:34:11;;;;;;;;;0.00;0.00;;;;;;;;4959232;28;45418;-58
2022/09/19 12:36:40;;;;;;;;;0.00;0.00;;;;;;;;4957776;28;45541;-55
2022/09/19 12:39:10;;;;;;;;;0.00;0.00;;;;;;;;4952039;28;45452;-54
2022/09/19 12:41:55;;;;;;;;;0.00;0.00;;;;;;;;4953103;28;46305;-55
2022/09/19 12:44:36;;;;;;;;;0.00;0.00;;;;;;;;4955662;28;45471;-54
2022/09/19 12:47:04;;;;;;;;;0.00;0.00;;;;;;;;4955020;28;45725;-55
2022/09/19 12:49:47;;;;;;;;;0.00;0.00;;;;;;;;4957319;28;45449;-56
2022/09/19 12:52:13;;;;;;;;;0.00;0.00;;;;;;;;4955061;28;45381;-55
2022/09/19 12:55:04;;;;;;;;;1.00;0.00;;;;;;;;4958752;28;45354;-56
2022/09/19 12:57:42;;;;;;;;;0.00;0.00;;;;;;;;4952807;28;45447;-55
2022/09/19 13:00:07;;;;;;;;;1.50;0.00;;;;;;;;4959850;28;45414;-57
2022/09/19 13:02:36;;;;;;;;;0.00;0.00;;;;;;;;4959844;28;46249;-55
2022/09/19 13:05:10;;;;;;;;;0.00;0.00;;;;;;;;4959604;28;45309;-55
2022/09/19 13:07:45;;;;;;;;;0.00;0.00;;;;;;;;4959610;28;45447;-55
2022/09/19 13:10:16;;;;;;;;;0.00;0.00;;;;;;;;4959052;28;45361;-55
2022/09/19 13:12:57;;;;;;;;;1.25;0.00;;;;;;;;4959373;28;45349;-55
2022/09/19 13:15:31;;;;;;;;;0.00;0.00;;;;;;;;4958022;28;45600;-55
2022/09/19 13:23:32;;;;;;;;;0.00;0.00;;;;;;;;4959138;28;45662;-56
2022/09/19 13:26:09;;;;;;;;;0.00;0.00;;;;;;;;4958664;28;45479;-55
2022/09/19 13:28:44;;;;;;;;;0.00;0.00;;;;;;;;4958914;28;45373;-57
2022/09/19 13:31:12;;;;;;;;;1.75;0.25;;;;;;;;4957752;28;45505;-55
2022/09/19 13:33:45;;;;;;;;;1.50;0.00;;;;;;;;4958683;28;46077;-55
2022/09/19 13:36:13;;;;;;;;;0.00;0.00;;;;;;;;4957164;28;45336;-55
2022/09/19 13:38:40;;;;;;;;;2.50;0.00;;;;;;;;4959372;28;45325;-56
2022/09/19 13:41:14;;;;;;;;;0.00;0.00;;;;;;;;4957584;28;45471;-54
2022/09/19 13:43:58;;;;;;;;;0.00;0.00;;;;;;;;4957826;28;45448;-54
2022/09/19 13:46:46;;;;;;;;;0.75;0.75;;;;;;;;4958354;28;45338;-56
2022/09/19 13:49:11;;;;;;;;;1.50;0.00;;;;;;;;4955631;28;45444;-54
2022/09/19 13:51:39;;;;;;;;;0.25;0.00;;;;;;;;4959475;28;45348;-56
2022/09/19 13:54:16;;;;;;;;;0.00;0.00;;;;;;;;4959254;28;46425;-56
2022/09/19 13:56:41;;;;;;;;;0.00;0.00;;;;;;;;4957984;28;45417;-55
2022/09/19 13:59:17;;;;;;;;;0.00;0.00;;;;;;;;4958444;28;45250;-57
2022/09/19 14:01:53;;;;;;;;;0.00;0.00;;;;;;;;4959077;28;45414;-56
2022/09/19 14:07:04;;;;;;;;;0.00;0.00;;;;;;;;4949304;28;45566;-55
2022/09/19 14:09:35;;;;;;;;;1.75;0.00;;;;;;;;4957424;28;45281;-56
2022/09/19 14:12:01;;;;;;;;;0.00;0.00;;;;;;;;4959611;28;45374;-55
2022/09/19 14:14:40;;;;;;;;;0.00;0.00;;;;;;;;4956133;28;46869;-52
2022/09/19 14:17:27;;;;;;;;;2.00;0.00;;;;;;;;4958577;28;45474;-56
2022/09/19 14:19:53;;;;;;;;;0.50;0.50;;;;;;;;4956822;28;45451;-55
2022/09/19 14:22:39;;;;;;;;;0.50;0.00;;;;;;;;4958347;28;45433;-56
2022/09/19 14:25:24;;;;;;;;;0.00;0.00;;;;;;;;4958272;28;46162;-56
2022/09/19 14:28:08;;;;;;;;;0.00;0.00;;;;;;;;4960115;28;45406;-54
2022/09/19 14:30:33;;;;;;;;;0.00;0.00;;;;;;;;4958868;28;45502;-55
2022/09/19 14:33:10;;;;;;;;;0.00;0.00;;;;;;;;4957681;28;46734;-56
2022/09/19 14:35:44;;;;;;;;;0.00;0.00;;;;;;;;4956836;28;45431;-56
2022/09/19 14:38:28;;;;;;;;;0.00;0.00;;;;;;;;4957826;28;45360;-53
2022/09/19 14:40:59;;;;;;;;;0.00;0.00;;;;;;;;4956887;28;45479;-53
2022/09/19 14:43:27;;;;;;;;;0.00;0.00;;;;;;;;4956173;28;45456;-54
2022/09/19 14:46:09;;;;;;;;;1.00;0.00;;;;;;;;4961857;28;46195;-54
2022/09/19 14:48:43;;;;;;;;;2.00;0.00;;;;;;;;4961889;28;45457;-56
2022/09/19 14:51:30;;;;;;;;;0.00;0.00;;;;;;;;4962131;28;45476;-52
2022/09/19 14:54:14;;;;;;;;;0.00;0.00;;;;;;;;4961031;28;45410;-56
2022/09/19 14:56:39;;;;;;;;;0.00;0.00;;;;;;;;4959565;28;45217;-55
2022/09/19 14:59:15;;;;;;;;;0.00;0.00;;;;;;;;4961496;28;45406;-57
2022/09/19 15:01:40;;;;;;;;;0.00;0.00;;;;;;;;4961056;28;45344;-55
2022/09/19 15:04:19;;;;;;;;;1.00;0.00;;;;;;;;4962067;28;45500;-56
2022/09/19 15:06:44;;;;;;;;;0.00;0.00;;;;;;;;4961318;28;48225;-56
2022/09/19 15:09:17;;;;;;;;;2.00;0.00;;;;;;;;4961187;28;45384;-55
2022/09/19 15:11:47;;;;;;;;;0.00;0.00;;;;;;;;4962253;28;45760;-55
2022/09/19 15:14:13;;;;;;;;;2.00;0.00;;;;;;;;4962007;28;45769;-54
2022/09/19 15:16:39;;;;;;;;;0.00;0.00;;;;;;;;4960616;28;47127;-53
2022/09/19 15:19:05;;;;;;;;;0.00;0.00;;;;;;;;4958859;28;45427;-55
2022/09/19 15:21:32;;;;;;;;;0.67;0.67;;;;;;;;4961376;28;45825;-54
2022/09/19 15:23:58;;;;;;;;;0.00;0.00;;;;;;;;4961899;28;45560;-53
2022/09/19 15:26:26;;;;;;;;;0.00;0.00;;;;;;;;4962253;28;47097;-56
2022/09/19 15:28:54;;;;;;;;;0.67;0.00;;;;;;;;4952262;28;45612;-57
2022/09/19 15:31:21;;;;;;;;;1.00;0.00;;;;;;;;4961378;28;45989;-53
2022/09/19 15:33:47;;;;;;;;;0.00;0.00;;;;;;;;4962900;28;45619;-55
2022/09/19 15:36:14;;;;;;;;;2.00;0.00;;;;;;;;4955460;28;45773;-56
2022/09/19 15:38:40;;;;;;;;;0.67;0.67;;;;;;;;4955462;28;45842;-54
2022/09/19 15:41:06;;;;;;;;;0.33;0.00;;;;;;;;4959730;28;45403;-56
2022/09/19 15:43:32;;;;;;;;;0.00;0.00;;;;;;;;4959519;28;45419;-55
2022/09/19 15:46:00;;;;;;;;;0.00;0.00;;;;;;;;4960340;28;45407;-56
2022/09/19 15:48:32;;;;;;;;;0.00;0.00;;;;;;;;4958660;28;45545;-56
2022/09/19 15:50:59;;;;;;;;;0.00;0.00;;;;;;;;4956603;28;45695;-56
2022/09/19 15:53:29;;;;;;;;;0.00;0.00;;;;;;;;4962121;28;45331;-56
2022/09/19 15:55:58;;;;;;;;;0.00;0.00;;;;;;;;4957926;28;45725;-56
2022/09/19 15:58:27;;;;;;;;;0.00;0.00;;;;;;;;4960025;28;45218;-56
2022/09/19 16:00:52;;;;;;;;;0.00;0.00;;;;;;;;4962176;28;45551;-54
2022/09/19 16:03:19;;;;;;;;;0.00;0.00;;;;;;;;4965316;28;45479;-51
2022/09/19 16:05:44;;;;;;;;;0.00;0.00;;;;;;;;4958024;28;46034;-54
2022/09/19 16:08:58;;;;;;;;;0.33;0.00;;;;;;;;4958393;28;45376;-56
2022/09/19 16:11:43;;;;;;;;;1.00;0.00;;;;;;;;4949342;28;45488;-55
2022/09/19 16:14:27;;;;;;;;;0.00;0.00;;;;;;;;4949084;28;45942;-55
2022/09/19 16:16:55;;;;;;;;;1.00;0.00;;;;;;;;4962712;28;46117;-51
2022/09/19 16:19:30;;;;;;;;;0.00;0.00;;;;;;;;4952732;28;45718;-53
2022/09/19 16:21:55;;;;;;;;;0.00;0.00;;;;;;;;4954959;28;45548;-54
2022/09/19 16:24:22;;;;;;;;;0.00;0.00;;;;;;;;4959331;28;45351;-55
2022/09/19 16:26:50;;;;;;;;;0.00;0.00;;;;;;;;4957626;28;46281;-51
2022/09/19 16:29:16;;;;;;;;;0.00;0.00;;;;;;;;4959985;28;45387;-56
2022/09/19 16:31:44;;;;;;;;;0.00;0.00;;;;;;;;4959276;28;45280;-53
2022/09/19 16:34:28;;;;;;;;;0.00;0.00;;;;;;;;4961702;28;45477;-53
2022/09/19 16:36:53;;;;;;;;;1.00;0.00;;;;;;;;4958312;28;46128;-55
2022/09/19 16:39:26;;;;;;;;;0.00;0.00;;;;;;;;4969610;28;45451;-55
2022/09/19 16:41:59;;;;;;;;;0.00;0.00;;;;;;;;4952141;28;45361;-52
2022/09/19 16:44:28;;;;;;;;;0.00;0.00;;;;;;;;4956519;28;45695;-55
2022/09/19 16:47:14;;;;;;;;;0.00;0.00;;;;;;;;4958635;28;45445;-56
2022/09/19 16:49:40;;;;;;;;;1.00;0.00;;;;;;;;4969104;28;45336;-55
2022/09/19 16:52:05;;;;;;;;;0.00;0.00;;;;;;;;4960151;28;45372;-53
2022/09/19 16:54:31;;;;;;;;;0.00;0.00;;;;;;;;4958763;28;45688;-53
2022/09/19 16:56:56;;;;;;;;;0.00;0.00;;;;;;;;4963854;28;46020;-56
2022/09/19 16:59:22;;;;;;;;;1.00;1.00;;;;;;;;4965740;28;46937;-56
2022/09/19 17:01:48;;;;;;;;;0.00;0.00;;;;;;;;4958659;28;45555;-54
2022/09/19 17:04:16;;;;;;;;;0.00;0.00;;;;;;;;4965328;28;45293;-53
2022/09/19 17:06:41;;;;;;;;;0.00;0.00;;;;;;;;4959975;28;46139;-53
2022/09/19 17:09:06;;;;;;;;;1.00;0.00;;;;;;;;4959167;28;45570;-57
2022/09/19 17:11:31;;;;;;;;;0.00;0.00;;;;;;;;4960705;28;45491;-54
2022/09/19 17:13:56;;;;;;;;;0.00;0.00;;;;;;;;4956404;28;45570;-54
2022/09/19 17:16:22;;;;;;;;;0.00;0.00;;;;;;;;4960764;28;45677;-54
2022/09/19 17:18:47;;;;;;;;;0.00;0.00;;;;;;;;4955324;28;45411;-52
2022/09/19 17:21:15;;;;;;;;;1.00;1.00;;;;;;;;4959201;28;45425;-55
2022/09/19 17:23:40;;;;;;;;;0.00;0.00;;;;;;;;4956039;28;45629;-55
2022/09/19 17:26:06;;;;;;;;;0.00;0.00;;;;;;;;4958493;28;46415;-58
2022/09/19 17:28:31;;;;;;;;;1.00;1.00;;;;;;;;4958288;28;45669;-58
2022/09/19 17:30:58;;;;;;;;;0.00;0.00;;;;;;;;4958823;28;45321;-58
2022/09/19 17:33:25;;;;;;;;;0.00;0.00;;;;;;;;4957804;28;45560;-57
2022/09/19 17:35:51;;;;;;;;;0.00;0.00;;;;;;;;4958451;28;46368;-59
2022/09/19 17:38:16;;;;;;;;;0.00;0.00;;;;;;;;4957938;28;45375;-58
2022/09/19 17:40:42;;;;;;;;;0.00;0.00;;;;;;;;4954984;28;45431;-56
2022/09/19 17:43:12;;;;;;;;;0.00;0.00;;;;;;;;4958522;28;45475;-58
2022/09/19 17:45:37;;;;;;;;;0.00;0.00;;;;;;;;4954175;28;46195;-58
2022/09/19 17:48:03;;;;;;;;;0.00;0.00;;;;;;;;4953274;28;45310;-59
2022/09/19 17:50:29;;;;;;;;;0.00;0.00;;;;;;;;4959998;28;45554;-58
2022/09/19 17:52:54;;;;;;;;;1.00;0.00;;;;;;;;4959546;28;45421;-57
2022/09/19 17:55:20;;;;;;;;;0.00;0.00;;;;;;;;4957342;28;45949;-57
2022/09/19 17:57:48;;;;;;;;;0.67;0.00;;;;;;;;4966405;28;45435;-58
2022/09/19 18:00:13;;;;;;;;;2.00;0.00;;;;;;;;4960550;28;45564;-57
2022/09/19 18:05:23;;;;;;;;;5.00;4.33;;;;;;;;4957444;28;45970;-59
2022/09/19 18:07:53;;;;;;;;;0.67;0.67;;;;;;;;4959256;28;45624;-59
2022/09/19 18:10:18;;;;;;;;;5.67;4.00;;;;;;;;4957408;28;45479;-59
2022/09/19 18:12:43;;;;;;;;;4.67;4.67;;;;;;;;4958083;28;45602;-58
2022/09/19 18:15:14;;;;;;;;;6.00;4.00;;;;;;;;4957192;28;46926;-58
2022/09/19 18:17:39;;;;;;;;;3.00;3.00;;;;;;;;4956694;28;45293;-59
2022/09/19 18:20:04;;;;;;;;;3.00;3.00;;;;;;;;4959347;28;45663;-58
2022/09/19 18:22:29;;;;;;;;;3.33;0.67;;;;;;;;4957172;28;45356;-58
2022/09/19 18:24:56;;;;;;;;;1.00;1.00;;;;;;;;4958376;28;46533;-58
2022/09/19 18:27:22;;;;;;;;;0.00;0.00;;;;;;;;4950858;28;45610;-58
2022/09/19 18:29:48;;;;;;;;;1.00;0.00;;;;;;;;4957994;28;45566;-58
2022/09/19 18:32:13;;;;;;;;;2.00;1.00;;;;;;;;4957597;28;45337;-56
2022/09/19 18:34:38;;;;;;;;;1.00;1.00;;;;;;;;4956391;28;45540;-57
2022/09/19 18:37:03;;;;;;;;;1.33;0.33;;;;;;;;4958906;28;45455;-56
2022/09/19 18:39:29;;;;;;;;;0.00;0.00;;;;;;;;4959676;28;45305;-57
2022/09/19 18:41:54;;;;;;;;;3.00;1.00;;;;;;;;4960679;28;45441;-56
2022/09/19 18:44:20;;;;;;;;;1.67;0.67;;;;;;;;4958054;28;46864;-57
2022/09/19 18:46:46;;;;;;;;;1.00;1.00;;;;;;;;4959006;28;45491;-56
2022/09/19 18:49:11;;;;;;;;;1.00;1.00;;;;;;;;4958990;28;45496;-56
2022/09/19 18:51:36;;;;;;;;;0.67;0.67;;;;;;;;4960058;28;45210;-56
2022/09/19 18:54:01;;;;;;;;;1.00;1.00;;;;;;;;4956199;28;45309;-58
2022/09/19 18:56:27;;;;;;;;;2.00;1.00;;;;;;;;4958757;28;45353;-58
2022/09/19 18:58:53;;;;;;;;;2.00;1.00;;;;;;;;4959140;28;45424;-59
2022/09/19 19:01:19;;;;;;;;;0.67;0.67;;;;;;;;4957855;28;45697;-58
2022/09/19 19:03:49;;;;;;;;;0.33;0.33;;;;;;;;4953621;28;46313;-58
2022/09/19 19:06:14;;;;;;;;;2.00;0.33;;;;;;;;4952300;28;45376;-57
2022/09/19 19:08:41;;;;;;;;;1.00;1.00;;;;;;;;4961961;28;45642;-57
2022/09/19 19:11:14;;;;;;;;;1.00;1.00;;;;;;;;4957547;28;45460;-58
2022/09/19 19:13:39;;;;;;;;;0.33;0.33;;;;;;;;4954525;28;45894;-57
2022/09/19 19:16:16;;;;;;;;;3.33;0.67;;;;;;;;4960507;28;45518;-57
2022/09/19 19:18:49;;;;;;;;;1.33;1.33;;;;;;;;4956926;28;45951;-57
2022/09/19 19:21:15;;;;;;;;;0.67;0.67;;;;;;;;4950293;28;45621;-58
2022/09/19 19:23:41;;;;;;;;;1.67;0.00;;;;;;;;4957670;28;46220;-57
2022/09/19 19:26:06;;;;;;;;;0.67;0.67;;;;;;;;4943776;28;45505;-58
2022/09/19 19:28:32;;;;;;;;;0.67;0.67;;;;;;;;4957104;28;45538;-57
2022/09/19 19:30:58;;;;;;;;;1.00;1.00;;;;;;;;4953275;28;46001;-57
2022/09/19 19:33:23;;;;;;;;;2.33;2.33;;;;;;;;4952868;28;46090;-58
2022/09/19 19:36:03;;;;;;;;;1.00;1.00;;;;;;;;4962706;28;45538;-58
2022/09/19 19:38:35;;;;;;;;;1.67;1.67;;;;;;;;4968262;28;45443;-57
2022/09/19 19:41:02;;;;;;;;;0.67;0.67;;;;;;;;4958943;28;45894;-57
2022/09/19 19:43:28;;;;;;;;;6.33;2.67;;;;;;;;4959557;28;48241;-56
2022/09/19 19:45:53;;;;;;;;;3.00;1.33;;;;;;;;4961788;28;45400;-58